Time;durP1;ratioP1;P1;durP2;ratioP2;P2;SDS_P1;SDS_P2;PMS_P1;PMS_P2;Temp;Humidity;BMP_temperature;BMP_pressure;BME280_temperature;BME280_humidity;BME280_pressure;Samples;Min_cycle;Max_cycle;Signal;HPM_P1;HPM_P2
2022/06/19 00:01:08;;;;;;;12.10;2.75;;;14.90;99.90;;;;;;5072771;28;20040;-74
2022/06/19 00:03:39;;;;;;;12.88;2.65;;;14.90;99.90;;;;;;5072551;28;20048;-74
2022/06/19 00:06:05;;;;;;;14.02;2.50;;;14.90;99.90;;;;;;5072517;28;20044;-74
2022/06/19 00:08:31;;;;;;;15.32;3.58;;;15.00;99.90;;;;;;5055900;28;20385;-74
2022/06/19 00:10:58;;;;;;;8.50;2.20;;;15.10;99.90;;;;;;5072548;28;20169;-74
2022/06/19 00:13:23;;;;;;;14.05;2.28;;;15.10;99.90;;;;;;5072528;28;20051;-74
2022/06/19 00:15:49;;;;;;;13.55;2.90;;;15.00;99.90;;;;;;5106396;28;20040;-74
2022/06/19 00:18:15;;;;;;;11.02;3.13;;;14.90;99.90;;;;;;5106441;28;20047;-75
2022/06/19 00:20:41;;;;;;;11.35;2.83;;;15.00;99.90;;;;;;5092076;28;20044;-74
2022/06/19 00:23:07;;;;;;;9.40;2.38;;;14.90;99.90;;;;;;5076350;28;20044;-74
2022/06/19 00:25:34;;;;;;;15.45;2.80;;;14.80;99.90;;;;;;5076566;28;20036;-74
2022/06/19 00:28:00;;;;;;;13.32;2.75;;;14.80;99.90;;;;;;5076437;28;20114;-73
2022/06/19 00:30:26;;;;;;;13.55;2.75;;;14.80;99.90;;;;;;5076425;28;20076;-73
2022/06/19 00:32:52;;;;;;;13.57;2.53;;;14.80;99.90;;;;;;5076245;28;20143;-74
2022/06/19 00:35:18;;;;;;;16.05;2.50;;;14.70;99.90;;;;;;5076294;28;20046;-74
2022/06/19 00:37:43;;;;;;;12.50;2.83;;;14.70;99.90;;;;;;5059091;28;20039;-75
2022/06/19 00:40:10;;;;;;;10.05;2.38;;;14.80;99.90;;;;;;5109593;28;20039;-74
2022/06/19 00:42:35;;;;;;;11.05;2.83;;;14.70;99.90;;;;;;5109563;28;20438;-74
2022/06/19 00:45:02;;;;;;;9.73;2.00;;;14.70;99.90;;;;;;5092830;28;20126;-75
2022/06/19 00:47:34;;;;;;;11.18;2.40;;;14.70;99.90;;;;;;5058703;28;20031;-74
2022/06/19 00:50:11;;;;;;;8.32;2.60;;;14.80;99.90;;;;;;5075663;28;20055;-75
2022/06/19 00:52:39;;;;;;;9.20;2.17;;;14.70;99.90;;;;;;5109222;28;20047;-74
2022/06/19 00:55:27;;;;;;;8.30;1.60;;;14.70;99.90;;;;;;5075584;28;20040;-74
2022/06/19 00:58:00;;;;;;;8.18;1.88;;;14.60;99.90;;;;;;5075218;28;20044;-74
2022/06/19 01:00:28;;;;;;;10.07;1.65;;;14.60;99.90;;;;;;5058632;28;20032;-74
2022/06/19 01:03:01;;;;;;;8.93;1.60;;;14.60;99.90;;;;;;5074972;28;20779;-74
2022/06/19 01:05:27;;;;;;;6.47;1.35;;;14.50;99.90;;;;;;5075221;28;20047;-74
2022/06/19 01:07:56;;;;;;;7.35;1.63;;;14.60;99.90;;;;;;5075410;28;20040;-74
2022/06/19 01:10:22;;;;;;;9.82;2.28;;;14.50;99.90;;;;;;5075093;28;20044;-75
2022/06/19 01:12:48;;;;;;;5.40;1.55;;;14.50;99.90;;;;;;5091784;28;20040;-75
2022/06/19 01:15:17;;;;;;;7.38;1.92;;;14.50;99.90;;;;;;5109343;28;20437;-74
2022/06/19 01:17:47;;;;;;;7.32;1.95;;;14.50;99.90;;;;;;5075075;28;20067;-74
2022/06/19 01:20:15;;;;;;;7.28;1.45;;;14.40;99.90;;;;;;5075105;28;20123;-75
2022/06/19 01:22:44;;;;;;;5.47;1.45;;;14.50;99.90;;;;;;5074978;28;20043;-74
2022/06/19 01:25:14;;;;;;;5.30;1.33;;;14.50;99.90;;;;;;5108687;28;20096;-75
2022/06/19 01:30:30;;;;;;;8.30;1.67;;;14.70;99.90;;;;;;5109032;28;20040;-74
2022/06/19 01:32:59;;;;;;;6.03;1.85;;;14.80;99.90;;;;;;5073872;28;20052;-74
2022/06/19 01:35:31;;;;;;;9.98;1.50;;;14.80;99.90;;;;;;5074703;28;20505;-74
2022/06/19 01:37:58;;;;;;;8.00;2.13;;;15.00;99.90;;;;;;5074471;28;20044;-74
2022/06/19 01:40:30;;;;;;;11.13;2.28;;;15.10;99.90;;;;;;5074555;28;20078;-73
2022/06/19 01:42:55;;;;;;;4.38;1.67;;;15.00;99.90;;;;;;5074315;28;20047;-73
2022/06/19 01:45:23;;;;;;;9.30;2.35;;;15.10;99.90;;;;;;5108268;28;20127;-73
2022/06/19 01:47:49;;;;;;;8.50;1.60;;;15.10;99.90;;;;;;5091325;28;20064;-74
2022/06/19 01:50:19;;;;;;;8.73;1.85;;;15.20;99.90;;;;;;5074283;28;20044;-75
2022/06/19 01:52:46;;;;;;;6.55;1.67;;;15.10;99.90;;;;;;5074216;28;20481;-75
2022/06/19 01:55:16;;;;;;;9.95;1.85;;;15.20;99.90;;;;;;5092538;28;20043;-75
2022/06/19 01:57:49;;;;;;;8.52;1.67;;;15.00;99.90;;;;;;5074225;28;20043;-74
2022/06/19 02:00:22;;;;;;;10.13;1.90;;;15.00;99.90;;;;;;5074081;28;20481;-75
2022/06/19 02:03:06;;;;;;;9.68;2.08;;;14.90;99.90;;;;;;5057399;28;20498;-74
2022/06/19 02:05:34;;;;;;;12.70;2.72;;;14.90;99.90;;;;;;5090904;28;20032;-73
2022/06/19 02:07:59;;;;;;;9.32;2.13;;;14.80;99.90;;;;;;5073696;28;20383;-73
2022/06/19 02:10:25;;;;;;;9.77;2.15;;;14.90;99.90;;;;;;5090730;28;20044;-74
2022/06/19 02:12:52;;;;;;;11.65;2.33;;;14.80;99.90;;;;;;5057558;28;20067;-73
2022/06/19 02:15:18;;;;;;;7.43;1.67;;;14.90;99.90;;;;;;5073755;28;20048;-74
2022/06/19 02:17:49;;;;;;;10.63;2.30;;;15.00;99.90;;;;;;5073909;28;20051;-74
2022/06/19 02:20:17;;;;;;;9.77;2.72;;;14.90;99.90;;;;;;5057155;28;20067;-74
2022/06/19 02:22:42;;;;;;;7.63;1.95;;;14.90;99.90;;;;;;5073523;28;20564;-74
2022/06/19 02:25:09;;;;;;;10.07;2.42;;;14.80;99.90;;;;;;5106481;22;20135;-70
2022/06/19 02:27:35;;;;;;;10.57;2.08;;;14.70;99.90;;;;;;5091846;28;20047;-72
2022/06/19 02:30:03;;;;;;;9.90;1.98;;;14.70;99.90;;;;;;5090633;28;20043;-70
2022/06/19 02:32:39;;;;;;;15.05;2.72;;;14.80;99.90;;;;;;5090643;28;20123;-72
2022/06/19 02:35:10;;;;;;;8.02;1.98;;;14.60;99.90;;;;;;5090383;28;20050;-72
2022/06/19 02:37:43;;;;;;;12.00;2.20;;;14.80;99.90;;;;;;5091771;28;20438;-72
2022/06/19 02:41:01;;;;;;;14.23;2.10;;;14.80;99.90;;;;;;5073262;28;20048;-72
2022/06/19 02:43:31;;;;;;;11.27;2.42;;;14.70;99.90;;;;;;5067369;28;20052;-72
2022/06/19 02:45:56;;;;;;;11.73;2.63;;;14.80;99.90;;;;;;5090356;28;20468;-70
2022/06/19 02:48:26;;;;;;;9.30;2.22;;;14.90;99.90;;;;;;5090085;28;20060;-71
2022/06/19 02:50:53;;;;;;;15.63;2.75;;;15.00;99.90;;;;;;5091525;28;20055;-71
2022/06/19 02:53:19;;;;;;;11.32;2.17;;;15.00;99.90;;;;;;5090425;28;20044;-71
2022/06/19 02:55:46;;;;;;;12.82;2.78;;;15.10;99.90;;;;;;5091276;28;20032;-71
2022/06/19 02:58:12;;;;;;;11.18;2.28;;;14.80;99.90;;;;;;5090275;28;20393;-71
2022/06/19 03:00:37;;;;;;;11.52;2.67;;;15.00;99.90;;;;;;5090067;28;20044;-71
2022/06/19 03:03:18;;;;;;;11.50;2.25;;;14.90;99.90;;;;;;5089971;28;20039;-71
2022/06/19 03:05:43;;;;;;;17.92;3.55;;;15.00;99.90;;;;;;5089989;28;20512;-71
2022/06/19 03:08:09;;;;;;;11.88;2.20;;;15.00;99.90;;;;;;5091180;28;20036;-71
2022/06/19 03:10:35;;;;;;;12.25;2.47;;;15.00;99.90;;;;;;5089928;28;20051;-71
2022/06/19 03:13:01;;;;;;;11.00;2.70;;;15.00;99.90;;;;;;5091080;28;20104;-71
2022/06/19 03:15:26;;;;;;;9.57;2.20;;;14.90;99.90;;;;;;5072632;28;20127;-71
2022/06/19 03:17:52;;;;;;;14.05;2.35;;;14.80;99.90;;;;;;5089680;28;20048;-71
2022/06/19 03:20:21;;;;;;;12.55;2.83;;;14.80;99.90;;;;;;5091066;28;20409;-71
2022/06/19 03:22:47;;;;;;;13.32;2.60;;;14.70;99.90;;;;;;5089486;28;20048;-71
2022/06/19 03:25:13;;;;;;;10.80;2.20;;;14.80;99.90;;;;;;5089359;28;20119;-71
2022/06/19 03:27:39;;;;;;;13.10;2.22;;;14.40;99.90;;;;;;5089512;28;20603;-71
2022/06/19 03:30:06;;;;;;;12.15;2.13;;;14.20;99.90;;;;;;5089554;28;20123;-71
2022/06/19 03:32:31;;;;;;;12.80;2.22;;;14.20;99.90;;;;;;5091120;28;20047;-71
2022/06/19 03:34:57;;;;;;;14.75;2.40;;;14.10;99.90;;;;;;5089413;28;20039;-71
2022/06/19 03:37:23;;;;;;;12.73;2.28;;;14.20;99.90;;;;;;5090842;28;20039;-71
2022/06/19 03:39:48;;;;;;;12.48;2.65;;;14.30;99.90;;;;;;5089441;28;20071;-71
2022/06/19 03:42:15;;;;;;;12.90;2.30;;;14.40;99.90;;;;;;5089735;28;20050;-71
2022/06/19 03:44:41;;;;;;;12.63;2.65;;;14.50;99.90;;;;;;5089237;28;20082;-71
2022/06/19 03:47:07;;;;;;;10.43;2.78;;;14.30;99.90;;;;;;5089507;28;20453;-71
2022/06/19 03:49:33;;;;;;;11.27;2.53;;;14.30;99.90;;;;;;5089635;28;20039;-71
2022/06/19 03:51:58;;;;;;;9.98;1.95;;;14.20;99.90;;;;;;5090457;28;20058;-71
2022/06/19 03:54:24;;;;;;;11.82;2.40;;;14.30;99.90;;;;;;5088897;28;20547;-71
2022/06/19 03:56:50;;;;;;;12.15;2.55;;;14.10;99.90;;;;;;5090426;28;20040;-72
2022/06/19 03:59:16;;;;;;;10.98;2.63;;;14.10;99.90;;;;;;5089169;28;20494;-71
2022/06/19 04:01:42;;;;;;;11.43;2.33;;;14.30;99.90;;;;;;5089703;28;20126;-71
2022/06/19 04:04:09;;;;;;;12.85;2.60;;;14.40;99.90;;;;;;5089010;28;20040;-71
2022/06/19 04:06:38;;;;;;;11.95;2.22;;;14.30;99.90;;;;;;5088901;28;20044;-71
2022/06/19 04:09:05;;;;;;;12.02;2.97;;;14.40;99.90;;;;;;5090309;28;20036;-71
2022/06/19 04:11:31;;;;;;;15.02;2.38;;;14.40;99.90;;;;;;5090190;28;20047;-71
2022/06/19 04:13:57;;;;;;;15.07;2.60;;;14.30;99.90;;;;;;5072582;28;20044;-71
2022/06/19 04:16:31;;;;;;;12.95;2.40;;;14.00;99.90;;;;;;5088659;28;20472;-71
2022/06/19 04:18:58;;;;;;;14.70;2.97;;;13.90;99.90;;;;;;5071921;28;20119;-71
2022/06/19 04:21:27;;;;;;;17.63;2.97;;;13.90;99.90;;;;;;5088638;28;20532;-71
2022/06/19 04:23:56;;;;;;;12.95;2.20;;;13.90;99.90;;;;;;5090053;28;20052;-71
2022/06/19 04:26:22;;;;;;;13.90;2.47;;;13.80;99.90;;;;;;5088954;28;20495;-71
2022/06/19 04:28:48;;;;;;;10.68;2.25;;;13.80;99.90;;;;;;5090380;28;20079;-71
2022/06/19 04:31:14;;;;;;;11.48;2.50;;;13.70;99.90;;;;;;5089455;28;20115;-71
2022/06/19 04:33:40;;;;;;;10.50;2.60;;;13.70;99.90;;;;;;5088929;28;20185;-71
2022/06/19 04:36:13;;;;;;;10.50;2.00;;;13.70;99.90;;;;;;5090181;28;20040;-72
2022/06/19 04:38:41;;;;;;;14.32;2.45;;;13.80;99.90;;;;;;5088842;28;20532;-71
2022/06/19 04:41:13;;;;;;;11.57;2.25;;;13.90;99.90;;;;;;5088606;28;20115;-71
2022/06/19 04:43:39;;;;;;;11.40;2.58;;;13.90;99.90;;;;;;5090181;28;20389;-71
2022/06/19 04:46:06;;;;;;;15.45;2.83;;;13.60;99.90;;;;;;5089096;28;20032;-71
2022/06/19 04:48:32;;;;;;;10.25;2.28;;;13.60;99.90;;;;;;5072173;28;20050;-70
2022/06/19 04:50:59;;;;;;;13.25;2.05;;;13.50;99.90;;;;;;5090285;28;20062;-71
2022/06/19 04:53:25;;;;;;;16.67;3.00;;;13.50;99.90;;;;;;5089678;28;20090;-71
2022/06/19 04:55:51;;;;;;;11.20;2.20;;;13.60;99.90;;;;;;5090124;28;20036;-71
2022/06/19 04:58:16;;;;;;;8.48;2.17;;;13.90;99.90;;;;;;5088631;28;20048;-71
2022/06/19 05:00:42;;;;;;;12.90;2.80;;;14.20;99.90;;;;;;5090084;28;20062;-70
2022/06/19 05:03:07;;;;;;;18.92;3.40;;;14.40;99.90;;;;;;5089752;28;20048;-71
2022/06/19 05:05:33;;;;;;;14.40;2.92;;;14.60;99.90;;;;;;5071722;28;20071;-70
2022/06/19 05:07:58;;;;;;;14.98;2.90;;;14.70;99.90;;;;;;5092774;28;20429;-70
2022/06/19 05:10:24;;;;;;;12.43;2.50;;;14.90;99.90;;;;;;5093353;28;20032;-71
2022/06/19 05:12:55;;;;;;;12.40;2.65;;;14.90;99.90;;;;;;5093409;28;20036;-70
2022/06/19 05:15:21;;;;;;;7.97;2.35;;;14.90;99.90;;;;;;5093335;28;20040;-71
2022/06/19 05:17:47;;;;;;;13.68;2.67;;;14.70;99.90;;;;;;5092231;28;20097;-70
2022/06/19 05:20:13;;;;;;;10.73;2.53;;;14.70;99.90;;;;;;5091958;28;20527;-71
2022/06/19 05:22:39;;;;;;;6.03;1.80;;;14.80;99.90;;;;;;5093155;28;20036;-71
2022/06/19 05:25:08;;;;;;;8.32;1.73;;;14.70;99.90;;;;;;5091669;28;20509;-70
2022/06/19 05:27:40;;;;;;;5.85;1.70;;;14.60;99.90;;;;;;5093164;28;20105;-71
2022/06/19 05:30:07;;;;;;;;;;;14.50;99.90;;;;;;5075338;28;20035;-70
2022/06/19 05:32:32;;;;;;;6.55;1.50;;;13.90;99.90;;;;;;5092927;28;19920;-70
2022/06/19 05:34:58;;;;;;;6.90;1.63;;;13.80;99.90;;;;;;5091626;28;20055;-70
2022/06/19 05:37:24;;;;;;;6.22;1.30;;;13.80;99.90;;;;;;5092719;28;20452;-70
2022/06/19 05:39:49;;;;;;;9.70;1.90;;;13.90;99.90;;;;;;5091875;28;20051;-70
2022/06/19 05:42:15;;;;;;;6.45;1.30;;;13.70;99.90;;;;;;5074502;28;20478;-70
2022/06/19 05:44:41;;;;;;;7.75;1.90;;;13.70;99.90;;;;;;5092963;28;20036;-71
2022/06/19 05:47:06;;;;;;;8.73;1.92;;;13.70;99.90;;;;;;5091451;28;20141;-71
2022/06/19 05:49:34;;;;;;;9.25;1.73;;;13.60;99.90;;;;;;5092729;28;20231;-71
2022/06/19 05:52:00;;;;;;;9.35;1.90;;;13.50;99.90;;;;;;5091255;28;20047;-71
2022/06/19 05:54:28;;;;;;;9.32;2.65;;;13.40;99.90;;;;;;5091385;28;20044;-70
2022/06/19 05:56:53;;;;;;;12.38;2.45;;;13.40;99.90;;;;;;5092717;28;20523;-71
2022/06/19 05:59:19;;;;;;;6.97;1.52;;;13.40;99.90;;;;;;5091056;28;20143;-71
2022/06/19 06:01:45;;;;;;;12.73;2.60;;;13.50;99.90;;;;;;5074584;28;20044;-70
2022/06/19 06:04:10;;;;;;;13.80;2.67;;;13.50;99.90;;;;;;5073977;28;20623;-70
2022/06/19 06:06:39;;;;;;;8.07;2.10;;;13.60;99.90;;;;;;5091200;28;20044;-71
2022/06/19 06:09:04;;;;;;;11.00;1.83;;;13.70;99.90;;;;;;5091194;28;20044;-71
2022/06/19 06:11:30;;;;;;;10.82;2.22;;;13.70;99.90;;;;;;5091233;28;20044;-71
2022/06/19 06:13:56;;;;;;;9.23;2.00;;;13.70;99.90;;;;;;5090960;28;20048;-71
2022/06/19 06:16:22;;;;;;;10.90;1.75;;;13.80;99.90;;;;;;5090916;28;20040;-71
2022/06/19 06:18:47;;;;;;;12.65;2.05;;;13.80;99.90;;;;;;5091886;28;20040;-71
2022/06/19 06:21:16;;;;;;;8.60;2.35;;;13.80;99.90;;;;;;5090975;28;20115;-71
2022/06/19 06:23:43;;;;;;;10.43;2.22;;;13.80;99.90;;;;;;5091933;28;20117;-71
2022/06/19 06:26:14;;;;;;;15.00;2.63;;;13.80;99.90;;;;;;5090539;28;20527;-71
2022/06/19 06:28:42;;;;;;;10.98;2.20;;;13.90;99.90;;;;;;5090392;28;20047;-71
2022/06/19 06:31:09;;;;;;;15.70;2.78;;;14.00;99.90;;;;;;5091907;28;20050;-71
2022/06/19 06:33:34;;;;;;;9.20;2.25;;;14.00;99.90;;;;;;5091649;28;20051;-71
2022/06/19 06:36:00;;;;;;;11.15;2.00;;;14.00;99.90;;;;;;5091981;28;20401;-71
2022/06/19 06:38:26;;;;;;;8.85;2.30;;;13.90;99.90;;;;;;5090279;28;20097;-71
2022/06/19 06:40:52;;;;;;;10.32;2.22;;;14.10;99.90;;;;;;5090291;28;20062;-71
2022/06/19 06:43:19;;;;;;;13.88;2.42;;;14.20;99.90;;;;;;5091665;28;20040;-71
2022/06/19 06:45:45;;;;;;;9.07;2.00;;;14.10;99.90;;;;;;5091776;28;20058;-71
2022/06/19 06:48:11;;;;;;;13.32;2.42;;;14.30;99.90;;;;;;5073338;28;20039;-71
2022/06/19 06:50:38;;;;;;;12.45;2.38;;;14.30;99.90;;;;;;5090448;28;20374;-71
2022/06/19 06:53:04;;;;;;;10.25;1.77;;;14.20;99.90;;;;;;5090111;28;20089;-71
2022/06/19 06:55:30;;;;;;;9.95;2.30;;;14.10;99.90;;;;;;5090083;28;20035;-71
2022/06/19 06:57:55;;;;;;;11.63;2.20;;;14.20;99.90;;;;;;5090208;28;20166;-71
2022/06/19 07:00:23;;;;;;;12.73;2.45;;;14.20;99.90;;;;;;5089937;28;20036;-71
2022/06/19 07:02:49;;;;;;;9.02;2.08;;;14.30;99.90;;;;;;5089833;28;20044;-71
2022/06/19 07:05:15;;;;;;;15.80;3.05;;;14.50;99.90;;;;;;5089793;28;20143;-71
2022/06/19 07:07:41;;;;;;;12.23;2.35;;;14.60;99.90;;;;;;5091214;28;20040;-71
2022/06/19 07:10:08;;;;;;;12.88;2.40;;;14.60;99.90;;;;;;5090002;28;20047;-71
2022/06/19 07:12:33;;;;;;;13.85;2.35;;;14.60;99.90;;;;;;5091138;28;20509;-71
2022/06/19 07:14:59;;;;;;;13.27;2.50;;;14.50;99.90;;;;;;5089981;28;20048;-71
2022/06/19 07:17:24;;;;;;;14.77;2.67;;;14.50;99.90;;;;;;5089708;28;20127;-71
2022/06/19 07:19:50;;;;;;;12.05;2.88;;;14.40;99.90;;;;;;5089511;28;20071;-71
2022/06/19 07:22:17;;;;;;;6.40;1.52;;;14.40;99.90;;;;;;5089587;28;20484;-71
2022/06/19 07:24:44;;;;;;;11.80;2.60;;;14.30;99.90;;;;;;5072385;28;20048;-71
2022/06/19 07:27:10;;;;;;;8.57;2.75;;;14.30;99.90;;;;;;5089475;28;20473;-71
2022/06/19 07:29:44;;;;;;;15.30;2.53;;;14.30;99.90;;;;;;5088894;28;20066;-71
2022/06/19 07:32:11;;;;;;;9.27;2.45;;;14.20;99.90;;;;;;5089503;28;20494;-71
2022/06/19 07:34:38;;;;;;;10.73;2.10;;;14.10;99.90;;;;;;5091112;28;20044;-71
2022/06/19 07:37:04;;;;;;;12.32;2.88;;;14.20;99.90;;;;;;5090728;28;20048;-71
2022/06/19 07:39:30;;;;;;;12.30;2.72;;;14.20;99.90;;;;;;5089276;28;20127;-71
2022/06/19 07:41:57;;;;;;;10.18;2.15;;;14.20;99.90;;;;;;5089357;28;20131;-71
2022/06/19 07:44:22;;;;;;;12.88;2.10;;;14.20;99.90;;;;;;5089015;28;20074;-71
2022/06/19 07:52:16;;;;;;;9.73;2.25;;;14.40;99.90;;;;;;5089222;28;20044;-71
2022/06/19 07:54:42;;;;;;;13.85;2.58;;;14.40;99.90;;;;;;5089062;28;20036;-71
2022/06/19 07:57:07;;;;;;;11.68;2.25;;;14.30;99.90;;;;;;5090492;28;20084;-71
2022/06/19 07:59:33;;;;;;;11.27;2.53;;;14.30;99.90;;;;;;5090647;28;20040;-71
2022/06/19 08:01:59;;;;;;;12.43;2.80;;;14.40;99.90;;;;;;5089306;28;20040;-71
2022/06/19 08:04:24;;;;;;;10.18;2.33;;;14.60;99.90;;;;;;5090301;28;20088;-71
2022/06/19 08:06:50;;;;;;;10.55;2.40;;;14.60;99.90;;;;;;5089107;28;20036;-71
2022/06/19 08:09:16;;;;;;;13.40;2.55;;;14.70;99.90;;;;;;5072190;28;20092;-71
2022/06/19 08:11:41;;;;;;;10.00;2.25;;;14.70;99.90;;;;;;5090556;28;20026;-71
2022/06/19 08:14:07;;;;;;;12.15;2.67;;;14.90;99.90;;;;;;5089022;28;20044;-71
2022/06/19 08:16:34;;;;;;;10.02;2.20;;;15.00;99.90;;;;;;5089076;28;20035;-71
2022/06/19 08:18:59;;;;;;;11.13;2.38;;;15.10;99.90;;;;;;5089310;28;20075;-71
2022/06/19 08:21:25;;;;;;;10.85;2.83;;;15.00;99.90;;;;;;5090233;28;20477;-71
2022/06/19 08:23:50;;;;;;;12.93;2.42;;;15.10;99.90;;;;;;5089939;28;20090;-71
2022/06/19 08:26:16;;;;;;;10.75;2.72;;;15.20;99.90;;;;;;5088832;28;20055;-71
2022/06/19 08:31:10;;;;;;;9.02;2.20;;;15.30;99.90;;;;;;5088869;28;20106;-71
2022/06/19 08:33:35;;;;;;;14.25;2.60;;;15.40;99.90;;;;;;5088948;28;20143;-71
2022/06/19 08:36:10;;;;;;;12.77;2.30;;;15.30;99.90;;;;;;5088775;28;20043;-71
2022/06/19 08:38:38;;;;;;;13.60;2.72;;;15.40;99.90;;;;;;5089054;28;20127;-71
2022/06/19 08:41:06;;;;;;;9.15;2.65;;;15.50;99.90;;;;;;5088614;28;20056;-71
2022/06/19 08:43:41;;;;;;;11.15;2.00;;;15.50;99.90;;;;;;5092265;28;20048;-71
2022/06/19 08:46:37;;;;;;;10.75;2.25;;;15.60;99.90;;;;;;5093975;28;20370;-71
2022/06/19 08:49:32;;;;;;;10.57;1.95;;;15.60;99.90;;;;;;5092538;28;20056;-71
2022/06/19 08:52:02;;;;;;;12.02;2.65;;;15.80;99.90;;;;;;5092770;28;20041;-71
2022/06/19 08:54:51;;;;;;;11.35;2.13;;;15.80;99.90;;;;;;5093830;28;20089;-71
2022/06/19 08:57:36;;;;;;;9.60;2.30;;;16.10;99.90;;;;;;5092441;28;20055;-71
2022/06/19 09:00:33;;;;;;;11.80;2.58;;;16.30;99.90;;;;;;5092333;28;20040;-71
2022/06/19 09:03:16;;;;;;;10.85;2.33;;;16.40;99.90;;;;;;5093560;28;20050;-71
2022/06/19 09:06:09;;;;;;;7.80;1.80;;;16.30;99.90;;;;;;5092321;28;20047;-71
2022/06/19 09:08:51;;;;;;;11.98;1.98;;;16.20;99.90;;;;;;5091421;28;20051;-71
2022/06/19 09:11:38;;;;;;;11.75;2.03;;;16.00;99.90;;;;;;5075117;28;20032;-71
2022/06/19 09:14:18;;;;;;;10.55;1.88;;;16.20;99.90;;;;;;5092211;28;20055;-71
2022/06/19 09:17:00;;;;;;;9.55;2.00;;;16.20;99.90;;;;;;5075046;28;20561;-71
2022/06/19 09:19:47;;;;;;;14.88;2.67;;;16.30;99.90;;;;;;5092230;28;20071;-71
2022/06/19 09:22:31;;;;;;;8.82;1.98;;;16.30;99.90;;;;;;5091784;28;20051;-71
2022/06/19 09:25:11;;;;;;;7.47;1.90;;;16.30;99.90;;;;;;5093170;28;20044;-71
2022/06/19 09:28:12;;;;;;;9.95;2.47;;;16.10;99.90;;;;;;5093068;28;20044;-71
2022/06/19 09:30:52;;;;;;;10.73;2.28;;;16.10;99.90;;;;;;5074790;28;20043;-71
2022/06/19 09:33:17;;;;;;;7.97;2.42;;;15.90;99.90;;;;;;5092186;28;20055;-74
2022/06/19 09:36:19;;;;;;;7.70;2.45;;;16.10;99.90;;;;;;5092704;28;20497;-74
2022/06/19 09:38:52;;;;;;;7.47;2.30;;;16.30;99.90;;;;;;5093812;28;20396;-74
2022/06/19 09:41:25;;;;;;;8.05;2.30;;;16.30;99.90;;;;;;5092330;28;20062;-73
2022/06/19 09:43:56;;;;;;;11.05;2.05;;;16.50;99.90;;;;;;5092350;28;20119;-74
2022/06/19 09:46:28;;;;;;;8.02;2.00;;;16.50;99.90;;;;;;5093572;28;20512;-73
2022/06/19 09:49:16;;;;;;;10.70;2.25;;;16.50;99.90;;;;;;5092379;28;20048;-74
2022/06/19 09:51:57;;;;;;;6.07;1.70;;;16.60;99.90;;;;;;5092517;28;20473;-74
2022/06/19 09:54:35;;;;;;;10.65;1.98;;;16.60;99.90;;;;;;5092341;28;20035;-73
2022/06/19 09:57:17;;;;;;;8.15;1.67;;;16.70;99.90;;;;;;5092371;28;20414;-74
2022/06/19 09:59:56;;;;;;;9.90;1.60;;;16.70;99.90;;;;;;5092523;28;20044;-74
2022/06/19 10:03:01;;;;;;;7.70;1.80;;;16.70;99.90;;;;;;5092492;28;20101;-74
2022/06/19 10:05:32;;;;;;;5.82;1.38;;;16.90;99.90;;;;;;5093905;28;20051;-73
2022/06/19 10:08:20;;;;;;;11.35;1.90;;;17.20;99.90;;;;;;5093703;28;20080;-74
2022/06/19 10:10:56;;;;;;;9.60;2.05;;;17.50;99.90;;;;;;5092514;28;20043;-74
2022/06/19 10:13:33;;;;;;;7.97;1.63;;;17.80;99.90;;;;;;5075683;28;20438;-74
2022/06/19 10:16:01;;;;;;;7.38;1.65;;;17.90;99.90;;;;;;5093587;28;20032;-74
2022/06/19 10:18:39;;;;;;;5.50;1.70;;;18.10;99.90;;;;;;5093328;28;20358;-74
2022/06/19 10:24:29;;;;;;;11.73;1.63;;;18.20;99.90;;;;;;5092832;28;20477;-74
2022/06/19 10:27:11;;;;;;;6.45;1.70;;;18.10;99.90;;;;;;5074723;28;20048;-74
2022/06/19 10:29:53;;;;;;;7.00;1.52;;;18.00;99.90;;;;;;5093325;28;20043;-74
2022/06/19 10:32:25;;;;;;;6.38;1.40;;;17.70;99.90;;;;;;5091755;28;20476;-74
2022/06/19 10:35:09;;;;;;;6.78;1.52;;;17.90;99.90;;;;;;5091563;28;20044;-74
2022/06/19 10:38:01;;;;;;;10.93;1.98;;;17.80;99.90;;;;;;5092766;28;20040;-73
2022/06/19 10:40:54;;;;;;;6.22;1.50;;;18.00;99.90;;;;;;5074469;28;20036;-74
2022/06/19 10:43:29;;;;;;;6.25;2.17;;;18.10;99.90;;;;;;5090196;28;20066;-74
2022/06/19 10:45:57;;;;;;;5.38;1.08;;;16.90;99.90;;;;;;5092357;28;20040;-74
2022/06/19 10:48:48;;;;;;;5.30;1.15;;;16.60;99.90;;;;;;5091261;28;20051;-73
2022/06/19 10:51:47;;;;;;;5.05;1.27;;;17.00;99.90;;;;;;5091057;28;20062;-73
2022/06/19 10:54:48;;;;;;;5.53;1.50;;;16.80;99.90;;;;;;5090724;28;20059;-74
2022/06/19 10:57:40;;;;;;;4.20;1.58;;;16.70;99.90;;;;;;5092443;28;20039;-73
2022/06/19 11:00:07;;;;;;;3.65;1.00;;;16.80;99.90;;;;;;5090537;28;20047;-73
2022/06/19 11:05:41;;;;;;;4.75;1.55;;;16.70;99.90;;;;;;5089896;28;20091;-74
2022/06/19 11:08:06;;;;;;;4.43;1.25;;;17.00;99.90;;;;;;5091920;28;20040;-74
2022/06/19 11:10:40;;;;;;;5.43;1.42;;;17.30;99.90;;;;;;5090969;28;20050;-74
2022/06/19 11:13:06;;;;;;;7.25;1.35;;;17.30;99.90;;;;;;5090852;28;20035;-74
2022/06/19 11:15:35;;;;;;;5.93;1.13;;;17.40;99.90;;;;;;5090705;28;20044;-74
2022/06/19 11:18:26;;;;;;;6.43;1.08;;;17.50;99.90;;;;;;5091988;28;20040;-73
2022/06/19 11:21:10;;;;;;;6.07;1.33;;;17.70;99.90;;;;;;5073687;28;20055;-74
2022/06/19 11:23:40;;;;;;;4.18;1.17;;;17.40;99.90;;;;;;5073359;28;20489;-74
2022/06/19 11:26:19;;;;;;;4.65;1.30;;;17.50;99.90;;;;;;5090595;28;20040;-73
2022/06/19 11:29:14;;;;;;;6.72;1.10;;;17.50;99.90;;;;;;5091633;28;20588;-74
2022/06/19 11:31:59;;;;;;;5.13;1.20;;;17.40;99.90;;;;;;5090222;28;20330;-73
2022/06/19 11:34:44;;;;;;;4.05;1.27;;;17.50;99.90;;;;;;5090399;28;20492;-73
2022/06/19 11:37:23;;;;;;;3.67;1.00;;;17.30;99.90;;;;;;5091684;28;20036;-73
2022/06/19 11:39:57;;;;;;;3.33;0.73;;;17.30;99.90;;;;;;5091197;28;20384;-73
2022/06/19 11:42:33;;;;;;;5.40;0.93;;;17.20;99.90;;;;;;5091713;28;20036;-73
2022/06/19 11:45:14;;;;;;;3.22;1.25;;;17.10;99.90;;;;;;5091586;28;20075;-74
2022/06/19 11:47:48;;;;;;;4.47;0.80;;;17.10;99.90;;;;;;5091748;28;20040;-74
2022/06/19 11:50:32;;;;;;;5.60;1.15;;;17.10;99.90;;;;;;5090005;28;20036;-73
2022/06/19 11:53:06;;;;;;;3.33;0.80;;;17.10;99.90;;;;;;5090059;28;20046;-73
2022/06/19 11:55:37;;;;;;;2.95;0.75;;;17.20;99.90;;;;;;5091283;28;20419;-74
2022/06/19 11:58:16;;;;;;;2.80;0.60;;;17.30;99.90;;;;;;5091368;28;20036;-73
2022/06/19 12:00:44;;;;;;;5.38;1.15;;;17.00;99.90;;;;;;5091595;28;20032;-73
2022/06/19 12:03:31;;;;;;;5.05;1.02;;;17.10;99.90;;;;;;5072883;28;20040;-73
2022/06/19 12:06:04;;;;;;;3.70;1.00;;;17.00;99.90;;;;;;5090176;28;20410;-74
2022/06/19 12:08:34;;;;;;;3.97;1.00;;;17.20;99.90;;;;;;5091303;28;20032;-73
2022/06/19 12:11:03;;;;;;;1.02;0.50;;;17.20;99.90;;;;;;5091567;28;20040;-74
2022/06/19 12:13:32;;;;;;;2.42;0.73;;;17.40;99.90;;;;;;5091273;28;20032;-73
2022/06/19 12:16:02;;;;;;;2.65;0.50;;;17.50;99.90;;;;;;5090950;28;20759;-74
2022/06/19 12:18:31;;;;;;;0.85;0.43;;;17.30;99.90;;;;;;5094123;28;20051;-73
2022/06/19 12:21:20;;;;;;;1.73;0.55;;;17.10;99.90;;;;;;5093904;28;20036;-74
2022/06/19 12:24:12;;;;;;;4.97;0.70;;;17.10;99.90;;;;;;5093512;28;20059;-74
2022/06/19 12:26:43;;;;;;;1.55;0.55;;;17.00;99.90;;;;;;5095387;28;20048;-73
2022/06/19 12:29:40;;;;;;;8.05;1.33;;;17.20;99.90;;;;;;5094773;28;20051;-74
2022/06/19 12:32:18;;;;;;;1.85;0.60;;;17.10;99.90;;;;;;5095427;28;20044;-73
2022/06/19 12:34:47;;;;;;;2.55;0.85;;;17.50;99.90;;;;;;5094001;28;20047;-73
2022/06/19 12:37:23;;;;;;;2.47;0.70;;;18.00;99.90;;;;;;5095265;28;20143;-73
2022/06/19 12:39:49;;;;;;;3.42;1.08;;;18.30;99.90;;;;;;5093430;28;20550;-73
2022/06/19 12:42:49;;;;;;;3.65;0.70;;;18.20;99.90;;;;;;5093483;28;20047;-73
2022/06/19 12:45:23;;;;;;;2.30;0.80;;;18.10;99.90;;;;;;5076856;28;20044;-73
2022/06/19 12:48:20;;;;;;;2.30;0.77;;;18.30;99.90;;;;;;5094008;28;20122;-74
2022/06/19 12:51:04;;;;;;;2.80;0.77;;;18.20;99.90;;;;;;5094687;28;20028;-74
2022/06/19 12:53:57;;;;;;;2.63;0.85;;;18.00;99.90;;;;;;5094996;28;20043;-73
2022/06/19 12:57:14;;;;;;;4.70;0.98;;;17.80;99.90;;;;;;5095146;28;20071;-73
2022/06/19 13:00:01;;;;;;;3.35;1.05;;;18.00;99.90;;;;;;5094643;28;20043;-74
2022/06/19 13:02:29;;;;;;;4.72;1.20;;;17.90;99.90;;;;;;5092909;28;20154;-74
2022/06/19 13:05:26;;;;;;;4.47;1.13;;;17.80;99.90;;;;;;5094132;28;20047;-73
2022/06/19 13:08:19;;;;;;;4.45;1.13;;;17.50;99.90;;;;;;5094863;28;20044;-73
2022/06/19 13:11:15;;;;;;;6.00;1.10;;;17.30;99.90;;;;;;5093237;28;20054;-73
2022/06/19 13:13:52;;;;;;;3.65;0.80;;;17.30;99.90;;;;;;5094327;28;20040;-73
2022/06/19 13:16:29;;;;;;;4.70;1.33;;;17.40;99.90;;;;;;5094183;28;20070;-73
2022/06/19 13:19:17;;;;;;;6.88;1.10;;;17.50;99.90;;;;;;5094522;28;20070;-73
2022/06/19 13:22:04;;;;;;;9.50;1.45;;;17.60;99.90;;;;;;5094004;28;20040;-74
2022/06/19 13:24:32;;;;;;;3.75;0.98;;;17.50;99.90;;;;;;5094313;28;20044;-74